sensor_id;sensor_type;location;lat;lon;timestamp;temperature;humidity
35129;DHT22;21301;43.626;10.580;2022-08-01T00:01:56;26.10;99.90
35129;DHT22;21301;43.626;10.580;2022-08-01T00:04:22;26.00;99.90
35129;DHT22;21301;43.626;10.580;2022-08-01T00:06:48;26.00;99.90
35129;DHT22;21301;43.626;10.580;2022-08-01T00:09:14;25.90;99.90
35129;DHT22;21301;43.626;10.580;2022-08-01T00:11:40;25.70;99.90
35129;DHT22;21301;43.626;10.580;2022-08-01T00:14:07;25.50;99.90
35129;DHT22;21301;43.626;10.580;2022-08-01T00:16:35;25.30;99.90
35129;DHT22;21301;43.626;10.580;2022-08-01T00:19:01;25.10;99.90
35129;DHT22;21301;43.626;10.580;2022-08-01T00:21:27;24.90;99.90
35129;DHT22;21301;43.626;10.580;2022-08-01T00:23:53;24.70;99.90
35129;DHT22;21301;43.626;10.580;2022-08-01T00:26:19;24.60;99.90
35129;DHT22;21301;43.626;10.580;2022-08-01T00:28:45;24.40;99.90
35129;DHT22;21301;43.626;10.580;2022-08-01T00:31:11;24.30;99.90
35129;DHT22;21301;43.626;10.580;2022-08-01T00:33:37;24.20;99.90
35129;DHT22;21301;43.626;10.580;2022-08-01T00:36:03;24.30;99.90
35129;DHT22;21301;43.626;10.580;2022-08-01T00:38:29;24.20;99.90
35129;DHT22;21301;43.626;10.580;2022-08-01T00:40:54;24.30;99.90
35129;DHT22;21301;43.626;10.580;2022-08-01T00:43:20;24.30;99.90
35129;DHT22;21301;43.626;10.580;2022-08-01T00:45:46;24.30;99.90
35129;DHT22;21301;43.626;10.580;2022-08-01T00:48:12;24.30;99.90
35129;DHT22;21301;43.626;10.580;2022-08-01T00:50:38;24.40;99.90
35129;DHT22;21301;43.626;10.580;2022-08-01T00:53:05;24.30;99.90
35129;DHT22;21301;43.626;10.580;2022-08-01T00:55:31;24.40;99.90
35129;DHT22;21301;43.626;10.580;2022-08-01T00:57:58;24.50;99.90
35129;DHT22;21301;43.626;10.580;2022-08-01T01:00:25;24.70;99.90
35129;DHT22;21301;43.626;10.580;2022-08-01T01:02:51;24.90;99.90
35129;DHT22;21301;43.626;10.580;2022-08-01T01:05:20;24.90;99.90
35129;DHT22;21301;43.626;10.580;2022-08-01T01:10:50;24.90;99.90
35129;DHT22;21301;43.626;10.580;2022-08-01T01:13:26;24.90;99.90
35129;DHT22;21301;43.626;10.580;2022-08-01T01:16:03;24.70;99.90
35129;DHT22;21301;43.626;10.580;2022-08-01T01:18:37;24.40;99.90
35129;DHT22;21301;43.626;10.580;2022-08-01T01:27:06;24.10;99.90
35129;DHT22;21301;43.626;10.580;2022-08-01T01:29:43;24.00;99.90
35129;DHT22;21301;43.626;10.580;2022-08-01T01:32:17;24.00;99.90
35129;DHT22;21301;43.626;10.580;2022-08-01T01:34:44;23.80;99.90
35129;DHT22;21301;43.626;10.580;2022-08-01T01:37:17;23.80;99.90
35129;DHT22;21301;43.626;10.580;2022-08-01T01:40:04;23.60;99.90
35129;DHT22;21301;43.626;10.580;2022-08-01T01:42:32;23.50;99.90
35129;DHT22;21301;43.626;10.580;2022-08-01T01:45:00;23.40;99.90
35129;DHT22;21301;43.626;10.580;2022-08-01T01:47:28;23.30;99.90
35129;DHT22;21301;43.626;10.580;2022-08-01T01:49:56;23.30;99.90
35129;DHT22;21301;43.626;10.580;2022-08-01T01:52:23;23.30;99.90
35129;DHT22;21301;43.626;10.580;2022-08-01T01:54:51;23.20;99.90
35129;DHT22;21301;43.626;10.580;2022-08-01T01:57:18;23.10;99.90
35129;DHT22;21301;43.626;10.580;2022-08-01T01:59:46;23.10;99.90
35129;DHT22;21301;43.626;10.580;2022-08-01T02:02:14;23.10;99.90
35129;DHT22;21301;43.626;10.580;2022-08-01T02:04:49;23.10;99.90
35129;DHT22;21301;43.626;10.580;2022-08-01T02:07:19;23.10;99.90
35129;DHT22;21301;43.626;10.580;2022-08-01T02:09:47;23.20;99.90
35129;DHT22;21301;43.626;10.580;2022-08-01T02:12:14;23.20;99.90
35129;DHT22;21301;43.626;10.580;2022-08-01T02:14:42;23.30;99.90
35129;DHT22;21301;43.626;10.580;2022-08-01T02:17:12;23.30;99.90
35129;DHT22;21301;43.626;10.580;2022-08-01T02:19:41;23.20;99.90
35129;DHT22;21301;43.626;10.580;2022-08-01T02:22:11;23.20;99.90
35129;DHT22;21301;43.626;10.580;2022-08-01T02:28:06;23.10;99.90
35129;DHT22;21301;43.626;10.580;2022-08-01T02:30:39;23.00;99.90
35129;DHT22;21301;43.626;10.580;2022-08-01T02:33:11;22.90;99.90
35129;DHT22;21301;43.626;10.580;2022-08-01T02:35:41;22.90;99.90
35129;DHT22;21301;43.626;10.580;2022-08-01T02:38:10;22.80;99.90
35129;DHT22;21301;43.626;10.580;2022-08-01T02:40:38;22.70;99.90
35129;DHT22;21301;43.626;10.580;2022-08-01T02:43:07;22.70;99.90
35129;DHT22;21301;43.626;10.580;2022-08-01T02:45:35;22.70;99.90
35129;DHT22;21301;43.626;10.580;2022-08-01T02:48:09;22.60;99.90
35129;DHT22;21301;43.626;10.580;2022-08-01T02:50:36;22.60;99.90
35129;DHT22;21301;43.626;10.580;2022-08-01T02:53:04;22.60;99.90
35129;DHT22;21301;43.626;10.580;2022-08-01T02:55:32;22.70;99.90
35129;DHT22;21301;43.626;10.580;2022-08-01T02:58:00;22.70;99.90
35129;DHT22;21301;43.626;10.580;2022-08-01T03:00:27;22.60;99.90
35129;DHT22;21301;43.626;10.580;2022-08-01T03:02:54;22.50;99.90
35129;DHT22;21301;43.626;10.580;2022-08-01T03:05:23;22.50;99.90
35129;DHT22;21301;43.626;10.580;2022-08-01T03:07:51;22.50;99.90
35129;DHT22;21301;43.626;10.580;2022-08-01T03:10:18;22.40;99.90
35129;DHT22;21301;43.626;10.580;2022-08-01T03:12:45;22.30;99.90
35129;DHT22;21301;43.626;10.580;2022-08-01T03:15:13;22.40;99.90
35129;DHT22;21301;43.626;10.580;2022-08-01T03:17:41;22.30;99.90
35129;DHT22;21301;43.626;10.580;2022-08-01T03:20:10;22.30;99.90
35129;DHT22;21301;43.626;10.580;2022-08-01T03:22:38;22.30;99.90
35129;DHT22;21301;43.626;10.580;2022-08-01T03:25:05;22.20;99.90
35129;DHT22;21301;43.626;10.580;2022-08-01T03:27:32;22.20;99.90
35129;DHT22;21301;43.626;10.580;2022-08-01T03:30:03;22.10;99.90
35129;DHT22;21301;43.626;10.580;2022-08-01T03:32:30;22.10;99.90
35129;DHT22;21301;43.626;10.580;2022-08-01T03:34:57;22.00;99.90
35129;DHT22;21301;43.626;10.580;2022-08-01T03:37:26;21.90;99.90
35129;DHT22;21301;43.626;10.580;2022-08-01T03:39:58;21.80;99.90
35129;DHT22;21301;43.626;10.580;2022-08-01T03:42:35;21.80;99.90
35129;DHT22;21301;43.626;10.580;2022-08-01T03:45:06;21.70;99.90
35129;DHT22;21301;43.626;10.580;2022-08-01T03:47:35;21.70;99.90
35129;DHT22;21301;43.626;10.580;2022-08-01T03:50:04;21.60;99.90
35129;DHT22;21301;43.626;10.580;2022-08-01T03:52:32;21.60;99.90
35129;DHT22;21301;43.626;10.580;2022-08-01T03:55:04;21.60;99.90
35129;DHT22;21301;43.626;10.580;2022-08-01T03:57:31;21.60;99.90
35129;DHT22;21301;43.626;10.580;2022-08-01T03:59:58;21.60;99.90
35129;DHT22;21301;43.626;10.580;2022-08-01T04:02:29;21.60;99.90
35129;DHT22;21301;43.626;10.580;2022-08-01T04:04:55;21.70;99.90
35129;DHT22;21301;43.626;10.580;2022-08-01T04:07:32;21.80;99.90
35129;DHT22;21301;43.626;10.580;2022-08-01T04:09:58;21.90;99.90
35129;DHT22;21301;43.626;10.580;2022-08-01T04:12:24;21.80;99.90
35129;DHT22;21301;43.626;10.580;2022-08-01T04:14:50;21.90;99.90
35129;DHT22;21301;43.626;10.580;2022-08-01T04:17:16;22.00;99.90
35129;DHT22;21301;43.626;10.580;2022-08-01T04:19:43;22.00;99.90
35129;DHT22;21301;43.626;10.580;2022-08-01T04:22:11;22.10;99.90
35129;DHT22;21301;43.626;10.580;2022-08-01T04:24:37;22.10;99.90
35129;DHT22;21301;43.626;10.580;2022-08-01T04:27:07;22.10;99.90
35129;DHT22;21301;43.626;10.580;2022-08-01T04:29:36;22.20;99.90
35129;DHT22;21301;43.626;10.580;2022-08-01T04:32:05;22.30;99.90
35129;DHT22;21301;43.626;10.580;2022-08-01T04:34:33;22.40;99.90
35129;DHT22;21301;43.626;10.580;2022-08-01T04:37:02;22.50;99.90
35129;DHT22;21301;43.626;10.580;2022-08-01T04:39:31;22.60;99.90
35129;DHT22;21301;43.626;10.580;2022-08-01T04:41:59;22.90;99.90
35129;DHT22;21301;43.626;10.580;2022-08-01T04:44:29;23.00;99.90
35129;DHT22;21301;43.626;10.580;2022-08-01T04:46:59;23.00;99.90
35129;DHT22;21301;43.626;10.580;2022-08-01T04:49:26;23.20;99.90
35129;DHT22;21301;43.626;10.580;2022-08-01T04:51:54;23.40;99.90
35129;DHT22;21301;43.626;10.580;2022-08-01T04:54:30;23.70;99.90
35129;DHT22;21301;43.626;10.580;2022-08-01T04:56:59;23.70;99.90
35129;DHT22;21301;43.626;10.580;2022-08-01T04:59:26;23.70;99.90
35129;DHT22;21301;43.626;10.580;2022-08-01T05:02:18;23.50;99.90
35129;DHT22;21301;43.626;10.580;2022-08-01T05:04:45;23.50;99.90
35129;DHT22;21301;43.626;10.580;2022-08-01T05:07:12;23.70;99.90
35129;DHT22;21301;43.626;10.580;2022-08-01T05:09:39;23.70;99.90
35129;DHT22;21301;43.626;10.580;2022-08-01T05:12:07;23.80;99.90
35129;DHT22;21301;43.626;10.580;2022-08-01T05:14:34;23.70;99.90
35129;DHT22;21301;43.626;10.580;2022-08-01T05:17:05;23.90;99.90
35129;DHT22;21301;43.626;10.580;2022-08-01T05:19:33;24.00;99.90
35129;DHT22;21301;43.626;10.580;2022-08-01T05:22:00;24.20;99.90
35129;DHT22;21301;43.626;10.580;2022-08-01T05:24:29;24.30;99.90
35129;DHT22;21301;43.626;10.580;2022-08-01T05:26:55;24.30;99.90
35129;DHT22;21301;43.626;10.580;2022-08-01T05:29:21;24.50;99.90
35129;DHT22;21301;43.626;10.580;2022-08-01T05:31:47;24.50;99.90
35129;DHT22;21301;43.626;10.580;2022-08-01T05:34:13;24.50;99.90
35129;DHT22;21301;43.626;10.580;2022-08-01T05:36:40;24.60;99.90
35129;DHT22;21301;43.626;10.580;2022-08-01T05:39:06;24.50;99.90
35129;DHT22;21301;43.626;10.580;2022-08-01T05:41:32;24.60;99.90
35129;DHT22;21301;43.626;10.580;2022-08-01T05:43:58;24.70;99.90
35129;DHT22;21301;43.626;10.580;2022-08-01T05:46:23;24.90;99.90
35129;DHT22;21301;43.626;10.580;2022-08-01T05:48:49;25.00;99.90
35129;DHT22;21301;43.626;10.580;2022-08-01T05:51:15;25.10;99.90
35129;DHT22;21301;43.626;10.580;2022-08-01T05:53:41;25.20;99.90
35129;DHT22;21301;43.626;10.580;2022-08-01T05:56:07;25.30;99.90
35129;DHT22;21301;43.626;10.580;2022-08-01T05:58:32;25.40;99.90
35129;DHT22;21301;43.626;10.580;2022-08-01T06:00:58;25.40;99.90
35129;DHT22;21301;43.626;10.580;2022-08-01T06:03:24;25.70;99.90
35129;DHT22;21301;43.626;10.580;2022-08-01T06:05:53;25.80;99.90
35129;DHT22;21301;43.626;10.580;2022-08-01T06:08:19;25.90;99.90
35129;DHT22;21301;43.626;10.580;2022-08-01T06:10:45;26.10;99.90
35129;DHT22;21301;43.626;10.580;2022-08-01T06:13:10;26.20;99.90
35129;DHT22;21301;43.626;10.580;2022-08-01T06:15:36;26.30;99.90
35129;DHT22;21301;43.626;10.580;2022-08-01T06:18:02;26.40;99.90
35129;DHT22;21301;43.626;10.580;2022-08-01T06:20:29;26.50;99.90
35129;DHT22;21301;43.626;10.580;2022-08-01T06:22:55;26.40;99.90
35129;DHT22;21301;43.626;10.580;2022-08-01T06:25:20;26.60;99.90
35129;DHT22;21301;43.626;10.580;2022-08-01T06:27:46;26.50;99.90
35129;DHT22;21301;43.626;10.580;2022-08-01T06:30:12;26.60;99.90
35129;DHT22;21301;43.626;10.580;2022-08-01T06:32:39;26.80;99.90
35129;DHT22;21301;43.626;10.580;2022-08-01T06:35:05;27.00;99.90
35129;DHT22;21301;43.626;10.580;2022-08-01T06:37:31;27.00;99.90
35129;DHT22;21301;43.626;10.580;2022-08-01T06:40:09;27.20;99.90
35129;DHT22;21301;43.626;10.580;2022-08-01T06:42:35;27.20;99.30
35129;DHT22;21301;43.626;10.580;2022-08-01T06:45:05;27.20;99.60
35129;DHT22;21301;43.626;10.580;2022-08-01T06:47:32;27.50;99.30
35129;DHT22;21301;43.626;10.580;2022-08-01T06:49:58;28.00;99.00
35129;DHT22;21301;43.626;10.580;2022-08-01T06:52:25;28.00;98.50
35129;DHT22;21301;43.626;10.580;2022-08-01T06:54:51;28.10;98.10
35129;DHT22;21301;43.626;10.580;2022-08-01T06:57:17;28.30;97.80
35129;DHT22;21301;43.626;10.580;2022-08-01T06:59:43;28.40;97.60
35129;DHT22;21301;43.626;10.580;2022-08-01T07:02:09;28.60;97.20
35129;DHT22;21301;43.626;10.580;2022-08-01T07:04:35;28.80;97.10
35129;DHT22;21301;43.626;10.580;2022-08-01T07:07:01;29.20;96.70
35129;DHT22;21301;43.626;10.580;2022-08-01T07:09:27;29.20;96.50
35129;DHT22;21301;43.626;10.580;2022-08-01T07:11:53;29.50;96.10
35129;DHT22;21301;43.626;10.580;2022-08-01T07:14:20;29.40;95.20
35129;DHT22;21301;43.626;10.580;2022-08-01T07:16:45;29.60;95.50
35129;DHT22;21301;43.626;10.580;2022-08-01T07:19:11;29.80;95.00
35129;DHT22;21301;43.626;10.580;2022-08-01T07:21:38;30.10;94.60
35129;DHT22;21301;43.626;10.580;2022-08-01T07:24:05;30.30;94.10
35129;DHT22;21301;43.626;10.580;2022-08-01T07:26:31;30.20;93.60
35129;DHT22;21301;43.626;10.580;2022-08-01T07:28:57;30.20;93.50
35129;DHT22;21301;43.626;10.580;2022-08-01T07:31:23;30.40;93.20
35129;DHT22;21301;43.626;10.580;2022-08-01T07:33:50;30.30;92.80
35129;DHT22;21301;43.626;10.580;2022-08-01T07:36:18;30.30;92.70
35129;DHT22;21301;43.626;10.580;2022-08-01T07:38:45;30.50;92.50
35129;DHT22;21301;43.626;10.580;2022-08-01T07:41:11;30.60;92.50
35129;DHT22;21301;43.626;10.580;2022-08-01T07:43:37;30.80;92.60
35129;DHT22;21301;43.626;10.580;2022-08-01T07:46:03;31.20;92.50
35129;DHT22;21301;43.626;10.580;2022-08-01T07:48:29;31.10;92.10
35129;DHT22;21301;43.626;10.580;2022-08-01T07:50:55;31.30;92.20
35129;DHT22;21301;43.626;10.580;2022-08-01T07:53:21;31.80;92.10
35129;DHT22;21301;43.626;10.580;2022-08-01T07:55:47;31.90;91.90
35129;DHT22;21301;43.626;10.580;2022-08-01T07:58:13;31.90;91.60
35129;DHT22;21301;43.626;10.580;2022-08-01T08:00:39;32.10;91.40
35129;DHT22;21301;43.626;10.580;2022-08-01T08:03:05;32.40;91.20
35129;DHT22;21301;43.626;10.580;2022-08-01T08:05:31;32.30;90.90
35129;DHT22;21301;43.626;10.580;2022-08-01T08:07:58;32.20;90.70
35129;DHT22;21301;43.626;10.580;2022-08-01T08:10:24;32.10;90.40
35129;DHT22;21301;43.626;10.580;2022-08-01T08:12:50;32.10;90.40
35129;DHT22;21301;43.626;10.580;2022-08-01T08:15:15;32.60;90.40
35129;DHT22;21301;43.626;10.580;2022-08-01T08:17:41;32.70;90.20
35129;DHT22;21301;43.626;10.580;2022-08-01T08:20:08;32.80;90.00
35129;DHT22;21301;43.626;10.580;2022-08-01T08:22:34;32.70;89.30
35129;DHT22;21301;43.626;10.580;2022-08-01T08:25:00;32.90;89.20
35129;DHT22;21301;43.626;10.580;2022-08-01T08:27:26;33.00;88.60
35129;DHT22;21301;43.626;10.580;2022-08-01T08:29:52;33.40;87.90
35129;DHT22;21301;43.626;10.580;2022-08-01T08:32:18;33.50;87.00
35129;DHT22;21301;43.626;10.580;2022-08-01T08:34:44;33.90;87.60
35129;DHT22;21301;43.626;10.580;2022-08-01T08:37:12;33.90;84.40
35129;DHT22;21301;43.626;10.580;2022-08-01T08:39:38;33.90;85.00
35129;DHT22;21301;43.626;10.580;2022-08-01T08:42:07;34.20;85.00
35129;DHT22;21301;43.626;10.580;2022-08-01T08:44:34;34.20;83.30
35129;DHT22;21301;43.626;10.580;2022-08-01T08:47:01;34.50;82.90
35129;DHT22;21301;43.626;10.580;2022-08-01T08:49:31;34.80;82.20
35129;DHT22;21301;43.626;10.580;2022-08-01T08:51:59;34.50;81.90
35129;DHT22;21301;43.626;10.580;2022-08-01T08:54:27;34.70;79.70
35129;DHT22;21301;43.626;10.580;2022-08-01T08:56:55;34.50;80.90
35129;DHT22;21301;43.626;10.580;2022-08-01T08:59:21;34.80;80.80
35129;DHT22;21301;43.626;10.580;2022-08-01T09:01:58;35.00;80.60
35129;DHT22;21301;43.626;10.580;2022-08-01T09:04:25;35.10;80.20
35129;DHT22;21301;43.626;10.580;2022-08-01T09:06:52;35.40;80.00
35129;DHT22;21301;43.626;10.580;2022-08-01T09:09:18;35.30;77.60
35129;DHT22;21301;43.626;10.580;2022-08-01T09:11:44;35.30;79.20
35129;DHT22;21301;43.626;10.580;2022-08-01T09:14:12;35.60;78.90
35129;DHT22;21301;43.626;10.580;2022-08-01T09:16:43;35.90;78.30
35129;DHT22;21301;43.626;10.580;2022-08-01T09:19:14;36.00;76.50
35129;DHT22;21301;43.626;10.580;2022-08-01T09:21:56;35.90;77.60
35129;DHT22;21301;43.626;10.580;2022-08-01T09:24:24;35.70;75.20
35129;DHT22;21301;43.626;10.580;2022-08-01T09:26:50;35.60;77.20
35129;DHT22;21301;43.626;10.580;2022-08-01T09:29:25;35.40;76.70
35129;DHT22;21301;43.626;10.580;2022-08-01T09:31:51;35.90;76.20
35129;DHT22;21301;43.626;10.580;2022-08-01T09:34:28;35.90;76.30
35129;DHT22;21301;43.626;10.580;2022-08-01T09:36:57;36.10;74.20
35129;DHT22;21301;43.626;10.580;2022-08-01T09:39:34;36.30;76.00
35129;DHT22;21301;43.626;10.580;2022-08-01T09:42:19;36.40;74.70
35129;DHT22;21301;43.626;10.580;2022-08-01T09:44:46;36.50;72.10
35129;DHT22;21301;43.626;10.580;2022-08-01T09:47:12;36.10;73.40
35129;DHT22;21301;43.626;10.580;2022-08-01T09:49:40;36.20;74.30
35129;DHT22;21301;43.626;10.580;2022-08-01T09:52:13;36.70;74.40
35129;DHT22;21301;43.626;10.580;2022-08-01T09:54:40;36.40;72.10
35129;DHT22;21301;43.626;10.580;2022-08-01T09:57:15;36.60;73.20
35129;DHT22;21301;43.626;10.580;2022-08-01T09:59:43;36.50;73.00
35129;DHT22;21301;43.626;10.580;2022-08-01T10:02:13;36.60;72.70
35129;DHT22;21301;43.626;10.580;2022-08-01T10:04:48;36.60;73.50
35129;DHT22;21301;43.626;10.580;2022-08-01T10:07:15;36.70;71.30
35129;DHT22;21301;43.626;10.580;2022-08-01T10:09:41;37.10;73.10
35129;DHT22;21301;43.626;10.580;2022-08-01T10:12:08;37.20;72.00
35129;DHT22;21301;43.626;10.580;2022-08-01T10:14:36;36.30;71.10
35129;DHT22;21301;43.626;10.580;2022-08-01T10:17:02;36.60;70.90
35129;DHT22;21301;43.626;10.580;2022-08-01T10:19:30;36.50;70.80
35129;DHT22;21301;43.626;10.580;2022-08-01T10:21:56;36.70;70.60
35129;DHT22;21301;43.626;10.580;2022-08-01T10:24:24;37.10;69.90
35129;DHT22;21301;43.626;10.580;2022-08-01T10:26:59;36.80;70.40
35129;DHT22;21301;43.626;10.580;2022-08-01T10:29:35;36.70;68.00
35129;DHT22;21301;43.626;10.580;2022-08-01T10:32:04;36.20;69.20
35129;DHT22;21301;43.626;10.580;2022-08-01T10:34:33;36.40;69.80
35129;DHT22;21301;43.626;10.580;2022-08-01T10:36:59;36.70;69.70
35129;DHT22;21301;43.626;10.580;2022-08-01T10:39:26;36.90;69.40
35129;DHT22;21301;43.626;10.580;2022-08-01T10:41:55;37.20;69.90
35129;DHT22;21301;43.626;10.580;2022-08-01T10:44:22;37.20;69.00
35129;DHT22;21301;43.626;10.580;2022-08-01T10:46:52;37.60;69.60
35129;DHT22;21301;43.626;10.580;2022-08-01T10:49:20;38.00;68.30
35129;DHT22;21301;43.626;10.580;2022-08-01T10:51:47;38.10;68.10
35129;DHT22;21301;43.626;10.580;2022-08-01T10:54:14;37.50;68.20
35129;DHT22;21301;43.626;10.580;2022-08-01T10:56:44;37.70;68.90
35129;DHT22;21301;43.626;10.580;2022-08-01T10:59:14;37.80;67.90
35129;DHT22;21301;43.626;10.580;2022-08-01T11:01:40;37.60;67.50
35129;DHT22;21301;43.626;10.580;2022-08-01T11:14:29;38.40;66.40
35129;DHT22;21301;43.626;10.580;2022-08-01T11:16:55;38.80;67.70
35129;DHT22;21301;43.626;10.580;2022-08-01T11:19:21;38.90;67.60
35129;DHT22;21301;43.626;10.580;2022-08-01T11:29:43;38.30;67.10
35129;DHT22;21301;43.626;10.580;2022-08-01T11:32:25;38.00;67.80
35129;DHT22;21301;43.626;10.580;2022-08-01T11:34:57;37.90;68.50
35129;DHT22;21301;43.626;10.580;2022-08-01T11:37:27;37.90;69.00
35129;DHT22;21301;43.626;10.580;2022-08-01T11:40:16;37.90;69.20
35129;DHT22;21301;43.626;10.580;2022-08-01T11:42:42;38.00;69.50
35129;DHT22;21301;43.626;10.580;2022-08-01T11:45:08;37.70;70.40
35129;DHT22;21301;43.626;10.580;2022-08-01T11:47:48;37.90;70.70
35129;DHT22;21301;43.626;10.580;2022-08-01T11:50:35;37.50;70.30
35129;DHT22;21301;43.626;10.580;2022-08-01T11:53:04;37.90;70.10
35129;DHT22;21301;43.626;10.580;2022-08-01T11:55:31;37.20;70.50
35129;DHT22;21301;43.626;10.580;2022-08-01T11:58:07;37.10;70.60
35129;DHT22;21301;43.626;10.580;2022-08-01T12:00:33;37.40;71.30
35129;DHT22;21301;43.626;10.580;2022-08-01T12:03:02;37.50;71.20
35129;DHT22;21301;43.626;10.580;2022-08-01T12:05:30;37.50;70.80
35129;DHT22;21301;43.626;10.580;2022-08-01T12:07:59;37.20;70.80
35129;DHT22;21301;43.626;10.580;2022-08-01T12:10:28;37.20;70.70
35129;DHT22;21301;43.626;10.580;2022-08-01T12:13:01;37.30;70.80
35129;DHT22;21301;43.626;10.580;2022-08-01T12:15:33;37.30;70.60
35129;DHT22;21301;43.626;10.580;2022-08-01T12:18:01;37.50;69.50
35129;DHT22;21301;43.626;10.580;2022-08-01T12:20:29;37.40;70.00
35129;DHT22;21301;43.626;10.580;2022-08-01T12:22:57;37.30;69.10
35129;DHT22;21301;43.626;10.580;2022-08-01T12:25:23;37.10;69.50
35129;DHT22;21301;43.626;10.580;2022-08-01T12:27:49;36.80;68.80
35129;DHT22;21301;43.626;10.580;2022-08-01T12:30:18;36.80;69.10
35129;DHT22;21301;43.626;10.580;2022-08-01T12:32:46;36.80;69.10
35129;DHT22;21301;43.626;10.580;2022-08-01T12:35:15;36.80;68.50
35129;DHT22;21301;43.626;10.580;2022-08-01T12:37:46;36.90;68.40
35129;DHT22;21301;43.626;10.580;2022-08-01T12:42:40;36.90;68.30
35129;DHT22;21301;43.626;10.580;2022-08-01T12:45:09;37.00;68.10
35129;DHT22;21301;43.626;10.580;2022-08-01T12:47:36;37.00;67.60
35129;DHT22;21301;43.626;10.580;2022-08-01T12:50:06;37.00;67.80
35129;DHT22;21301;43.626;10.580;2022-08-01T12:52:33;36.90;67.60
35129;DHT22;21301;43.626;10.580;2022-08-01T12:55:17;36.90;67.80
35129;DHT22;21301;43.626;10.580;2022-08-01T12:57:45;37.10;67.50
35129;DHT22;21301;43.626;10.580;2022-08-01T13:00:19;37.30;68.10
35129;DHT22;21301;43.626;10.580;2022-08-01T13:02:47;37.40;67.70
35129;DHT22;21301;43.626;10.580;2022-08-01T13:05:14;36.90;67.50
35129;DHT22;21301;43.626;10.580;2022-08-01T13:07:44;36.90;67.70
35129;DHT22;21301;43.626;10.580;2022-08-01T13:10:11;36.80;67.30
35129;DHT22;21301;43.626;10.580;2022-08-01T13:12:38;36.40;67.00
35129;DHT22;21301;43.626;10.580;2022-08-01T13:17:46;36.50;67.40
35129;DHT22;21301;43.626;10.580;2022-08-01T13:20:25;36.60;67.90
35129;DHT22;21301;43.626;10.580;2022-08-01T13:22:51;36.50;67.10
35129;DHT22;21301;43.626;10.580;2022-08-01T13:25:18;36.60;67.40
35129;DHT22;21301;43.626;10.580;2022-08-01T13:27:44;36.80;67.50
35129;DHT22;21301;43.626;10.580;2022-08-01T13:30:21;36.60;66.90
35129;DHT22;21301;43.626;10.580;2022-08-01T13:33:00;36.40;67.10
35129;DHT22;21301;43.626;10.580;2022-08-01T13:35:27;36.20;67.10
35129;DHT22;21301;43.626;10.580;2022-08-01T13:37:52;36.40;67.50
35129;DHT22;21301;43.626;10.580;2022-08-01T13:40:27;36.40;66.90
35129;DHT22;21301;43.626;10.580;2022-08-01T13:42:54;36.40;67.00
35129;DHT22;21301;43.626;10.580;2022-08-01T13:45:22;36.20;66.90
35129;DHT22;21301;43.626;10.580;2022-08-01T13:47:49;36.30;67.00
35129;DHT22;21301;43.626;10.580;2022-08-01T13:50:15;36.20;66.90
35129;DHT22;21301;43.626;10.580;2022-08-01T13:52:41;36.30;66.90
35129;DHT22;21301;43.626;10.580;2022-08-01T13:55:07;36.30;66.70
35129;DHT22;21301;43.626;10.580;2022-08-01T13:57:33;36.20;66.80
35129;DHT22;21301;43.626;10.580;2022-08-01T13:59:59;36.40;66.60
35129;DHT22;21301;43.626;10.580;2022-08-01T14:02:26;36.40;66.50
35129;DHT22;21301;43.626;10.580;2022-08-01T14:04:53;36.40;66.00
35129;DHT22;21301;43.626;10.580;2022-08-01T14:07:24;36.50;66.50
35129;DHT22;21301;43.626;10.580;2022-08-01T14:09:50;36.70;66.40
35129;DHT22;21301;43.626;10.580;2022-08-01T14:12:16;36.50;65.80
35129;DHT22;21301;43.626;10.580;2022-08-01T14:14:41;36.20;66.10
35129;DHT22;21301;43.626;10.580;2022-08-01T14:17:07;36.20;66.80
35129;DHT22;21301;43.626;10.580;2022-08-01T14:19:33;36.30;66.80
35129;DHT22;21301;43.626;10.580;2022-08-01T14:21:59;36.30;66.80
35129;DHT22;21301;43.626;10.580;2022-08-01T14:24:24;35.90;67.00
35129;DHT22;21301;43.626;10.580;2022-08-01T14:26:51;35.80;68.50
35129;DHT22;21301;43.626;10.580;2022-08-01T14:29:17;35.60;69.10
35129;DHT22;21301;43.626;10.580;2022-08-01T14:31:43;35.60;69.20
35129;DHT22;21301;43.626;10.580;2022-08-01T14:34:09;35.60;69.40
35129;DHT22;21301;43.626;10.580;2022-08-01T14:36:34;35.60;68.50
35129;DHT22;21301;43.626;10.580;2022-08-01T14:39:00;35.30;68.80
35129;DHT22;21301;43.626;10.580;2022-08-01T14:41:27;35.20;69.60
35129;DHT22;21301;43.626;10.580;2022-08-01T14:43:53;35.40;69.00
35129;DHT22;21301;43.626;10.580;2022-08-01T14:46:18;35.50;68.40
35129;DHT22;21301;43.626;10.580;2022-08-01T14:48:44;35.40;68.60
35129;DHT22;21301;43.626;10.580;2022-08-01T14:51:10;35.50;68.30
35129;DHT22;21301;43.626;10.580;2022-08-01T14:53:36;35.50;68.00
35129;DHT22;21301;43.626;10.580;2022-08-01T14:56:06;35.20;67.90
35129;DHT22;21301;43.626;10.580;2022-08-01T14:58:33;35.20;68.10
35129;DHT22;21301;43.626;10.580;2022-08-01T15:00:59;35.30;66.80
35129;DHT22;21301;43.626;10.580;2022-08-01T15:03:25;35.30;67.20
35129;DHT22;21301;43.626;10.580;2022-08-01T15:05:50;35.20;67.60
35129;DHT22;21301;43.626;10.580;2022-08-01T15:08:16;35.20;67.20
35129;DHT22;21301;43.626;10.580;2022-08-01T15:10:42;34.90;67.20
35129;DHT22;21301;43.626;10.580;2022-08-01T15:13:08;34.80;67.70
35129;DHT22;21301;43.626;10.580;2022-08-01T15:15:34;35.10;68.50
35129;DHT22;21301;43.626;10.580;2022-08-01T15:18:00;35.10;66.90
35129;DHT22;21301;43.626;10.580;2022-08-01T15:20:26;35.00;67.50
35129;DHT22;21301;43.626;10.580;2022-08-01T15:22:53;35.00;67.80
35129;DHT22;21301;43.626;10.580;2022-08-01T15:25:19;35.10;67.80
35129;DHT22;21301;43.626;10.580;2022-08-01T15:27:45;35.30;68.40
35129;DHT22;21301;43.626;10.580;2022-08-01T15:30:11;35.10;68.50
35129;DHT22;21301;43.626;10.580;2022-08-01T15:32:37;35.20;68.80
35129;DHT22;21301;43.626;10.580;2022-08-01T15:35:04;35.30;67.70
35129;DHT22;21301;43.626;10.580;2022-08-01T15:37:31;35.20;67.90
35129;DHT22;21301;43.626;10.580;2022-08-01T15:39:57;34.90;68.20
35129;DHT22;21301;43.626;10.580;2022-08-01T15:42:23;34.80;68.60
35129;DHT22;21301;43.626;10.580;2022-08-01T15:44:49;35.00;68.70
35129;DHT22;21301;43.626;10.580;2022-08-01T15:47:15;35.30;68.80
35129;DHT22;21301;43.626;10.580;2022-08-01T15:49:40;35.40;68.60
35129;DHT22;21301;43.626;10.580;2022-08-01T15:52:07;35.20;68.50
35129;DHT22;21301;43.626;10.580;2022-08-01T15:54:34;35.30;68.70
35129;DHT22;21301;43.626;10.580;2022-08-01T15:57:00;35.20;68.60